Time;durP1;ratioP1;P1;durP2;ratioP2;P2;SDS_P1;SDS_P2;PMS_P1;PMS_P2;Temp;Humidity;BMP_temperature;BMP_pressure;BME280_temperature;BME280_humidity;BME280_pressure;Samples;Min_cycle;Max_cycle;Signal;HPM_P1;HPM_P2
2023/03/14 00:00:05;;;;;;;8.98;4.82;;;;;;;9.22;50.54;97404.53;5087731;28;20036;-73
2023/03/14 00:02:32;;;;;;;4.93;4.30;;;;;;;9.55;50.56;97468.91;5088696;28;20048;-72
2023/03/14 00:04:59;;;;;;;6.20;4.68;;;;;;;9.25;50.56;97428.09;5088264;28;20044;-72
2023/03/14 00:07:26;;;;;;;6.28;4.80;;;;;;;9.55;50.43;97464.47;5088224;28;20041;-72
2023/03/14 00:09:53;;;;;;;6.00;4.35;;;;;;;9.57;50.42;97470.47;5088336;28;20044;-72
2023/03/14 00:12:19;;;;;;;9.18;4.95;;;;;;;9.59;50.27;97457.13;5088690;28;20044;-73
2023/03/14 00:14:46;;;;;;;7.40;4.15;;;;;;;9.59;50.34;97459.78;5088487;28;20059;-72
2023/03/14 00:17:14;;;;;;;7.25;4.78;;;;;;;9.39;50.39;97423.50;5088613;28;20036;-72
2023/03/14 00:19:41;;;;;;;5.90;4.00;;;;;;;9.61;50.34;97441.97;5087230;28;20331;-72
2023/03/14 00:22:08;;;;;;;6.70;4.65;;;;;;;9.63;50.46;97450.63;5087973;28;20044;-72
2023/03/14 00:24:35;;;;;;;11.27;4.88;;;;;;;9.61;50.47;97434.03;5088016;28;20036;-72
2023/03/14 00:27:02;;;;;;;5.40;4.35;;;;;;;9.57;50.72;97430.81;5087933;28;20312;-72
2023/03/14 00:29:28;;;;;;;5.60;4.20;;;;;;;9.54;50.81;97427.56;5087605;28;20285;-72
2023/03/14 00:31:55;;;;;;;7.78;4.60;;;;;;;9.52;50.88;97430.34;5088238;28;20055;-72
2023/03/14 00:34:23;;;;;;;9.40;5.53;;;;;;;9.51;50.83;97412.78;5087779;28;20040;-73
2023/03/14 00:36:50;;;;;;;7.57;4.85;;;;;;;8.95;50.86;97325.66;5085985;28;20198;-72
2023/03/14 00:39:17;;;;;;;7.22;4.60;;;;;;;8.58;51.02;97271.47;5086634;28;20040;-72
2023/03/14 00:41:44;;;;;;;5.85;4.28;;;;;;;9.48;51.02;97417.50;5087467;28;20067;-72
2023/03/14 00:44:10;;;;;;;5.82;3.95;;;;;;;9.38;51.09;97392.72;5087434;28;20182;-72
2023/03/14 00:46:37;;;;;;;6.45;4.35;;;;;;;9.50;50.95;97412.91;5087366;28;20064;-72
2023/03/14 00:49:04;;;;;;;7.85;3.75;;;;;;;9.51;51.00;97411.94;5087640;28;20047;-72
2023/03/14 00:51:32;;;;;;;6.75;4.28;;;;;;;9.51;51.05;97399.56;5087252;28;20040;-72
2023/03/14 00:54:00;;;;;;;5.95;4.10;;;;;;;9.48;51.12;97410.41;5086424;28;20302;-74
2023/03/14 00:56:27;;;;;;;8.50;4.13;;;;;;;9.48;51.15;97394.53;5087311;28;20103;-72
2023/03/14 00:58:55;;;;;;;6.75;4.95;;;;;;;9.49;50.90;97384.78;5087562;28;20051;-72
2023/03/14 01:01:22;;;;;;;6.00;4.45;;;;;;;9.48;51.16;97373.38;5087309;28;20052;-72
2023/03/14 01:03:52;;;;;;;7.35;4.70;;;;;;;9.47;51.60;97384.91;5086133;28;20041;-72
2023/03/14 01:06:21;;;;;;;5.63;4.50;;;;;;;9.11;51.06;97309.41;5086872;28;20305;-72
2023/03/14 01:08:50;;;;;;;6.47;4.07;;;;;;;9.43;51.41;97364.16;5087134;28;20044;-72
2023/03/14 01:11:20;;;;;;;7.00;4.20;;;;;;;9.43;51.18;97356.22;5086891;28;20050;-72
2023/03/14 01:13:47;;;;;;;6.30;4.70;;;;;;;9.45;51.11;97364.84;5086488;28;20086;-72
2023/03/14 01:16:14;;;;;;;5.88;4.25;;;;;;;9.44;51.31;97358.72;5086827;28;20056;-72
2023/03/14 01:18:44;;;;;;;6.85;4.10;;;;;;;8.73;51.39;97254.38;5086500;28;20036;-72
2023/03/14 01:21:13;;;;;;;6.30;4.75;;;;;;;9.41;51.50;97345.75;5087102;28;20043;-72
2023/03/14 01:23:39;;;;;;;9.10;7.07;;;;;;;9.24;51.46;97317.19;5086577;28;20074;-72
2023/03/14 01:26:11;;;;;;;11.05;7.95;;;;;;;9.38;51.99;97343.34;5085762;28;20052;-72
2023/03/14 01:28:38;;;;;;;9.13;5.88;;;;;;;9.36;51.49;97331.22;5086812;28;20055;-72
2023/03/14 01:31:05;;;;;;;8.60;6.20;;;;;;;8.18;51.45;97126.03;5086486;28;20075;-72
2023/03/14 01:33:32;;;;;;;6.72;5.75;;;;;;;9.13;51.53;97290.78;5087009;28;20112;-72
2023/03/14 01:35:58;;;;;;;6.80;4.55;;;;;;;9.36;51.45;97329.41;5086616;28;20070;-72
2023/03/14 01:38:25;;;;;;;7.13;3.92;;;;;;;9.36;51.47;97324.13;5086699;28;20054;-72
2023/03/14 01:40:52;;;;;;;6.03;4.20;;;;;;;9.36;51.45;97328.56;5086344;28;20037;-71
2023/03/14 01:43:24;;;;;;;6.15;4.28;;;;;;;9.36;51.57;97325.91;5086829;28;20110;-72
2023/03/14 01:46:19;;;;;;;5.55;4.22;;;;;;;9.32;53.08;97318.25;5086241;28;20043;-72
2023/03/14 01:48:48;;;;;;;;;;;;;;;9.22;53.66;97322.59;5084995;28;20055;-72
2023/03/14 01:51:18;;;;;;;6.88;3.90;;;;;;;9.21;51.97;97331.50;5086483;28;19987;-72
2023/03/14 01:53:46;;;;;;;6.50;4.20;;;;;;;8.73;51.72;97245.63;5085265;28;20050;-72
2023/03/14 01:56:15;;;;;;;6.10;4.25;;;;;;;9.10;51.70;97312.16;5086597;28;20045;-72
2023/03/14 01:58:46;;;;;;;7.22;4.35;;;;;;;8.73;51.95;97238.53;5085898;28;20036;-72
2023/03/14 02:01:13;;;;;;;8.23;4.53;;;;;;;9.14;52.07;97324.16;5086586;28;20056;-73
2023/03/14 02:03:48;;;;;;;6.47;4.50;;;;;;;9.16;52.99;97335.44;5086423;28;20040;-73
2023/03/14 02:06:18;;;;;;;6.07;4.50;;;;;;;9.13;52.33;97341.81;5086186;28;20059;-73
2023/03/14 02:08:48;;;;;;;7.22;4.38;;;;;;;9.11;52.27;97329.69;5085973;28;20039;-72
2023/03/14 02:11:15;;;;;;;7.15;4.63;;;;;;;6.68;52.13;97015.69;5086506;28;20044;-72
2023/03/14 02:13:44;;;;;;;7.60;4.68;;;;;;;9.08;52.55;97336.06;5085509;28;20039;-72
2023/03/14 02:16:11;;;;;;;8.85;4.50;;;;;;;9.01;52.35;97326.97;5084860;28;20211;-72
2023/03/14 02:18:40;;;;;;;6.03;4.47;;;;;;;8.52;52.43;97254.31;5084893;28;20032;-72
2023/03/14 02:21:14;;;;;;;10.18;5.03;;;;;;;9.00;52.81;97335.84;5086391;28;20037;-72
2023/03/14 02:23:49;;;;;;;6.40;4.80;;;;;;;8.80;53.31;97303.13;5085360;28;20412;-73
2023/03/14 02:26:22;;;;;;;6.47;4.63;;;;;;;8.98;52.69;97325.41;5085042;28;20075;-73
2023/03/14 02:28:53;;;;;;;6.80;4.53;;;;;;;8.97;52.66;97331.66;5085134;28;20062;-73
2023/03/14 02:31:20;;;;;;;8.95;5.28;;;;;;;8.71;52.51;97339.97;5085242;28;20041;-73
2023/03/14 02:33:47;;;;;;;7.22;5.30;;;;;;;8.93;52.71;97351.34;5085695;28;20036;-73
2023/03/14 02:36:16;;;;;;;7.75;4.80;;;;;;;8.95;52.74;97364.44;5084957;28;20036;-74
2023/03/14 02:38:48;;;;;;;7.05;5.30;;;;;;;8.83;53.26;97347.78;5085081;28;20038;-73
2023/03/14 02:41:16;;;;;;;6.43;4.38;;;;;;;8.88;53.05;97355.31;5085534;28;20046;-72
2023/03/14 02:43:42;;;;;;;8.13;5.93;;;;;;;8.83;53.10;97366.25;5085714;28;20048;-72
2023/03/14 02:46:12;;;;;;;7.60;4.55;;;;;;;8.82;53.39;97366.38;5085452;28;20090;-74
2023/03/14 02:48:42;;;;;;;7.25;4.90;;;;;;;8.82;53.18;97383.06;5085587;28;20047;-73
2023/03/14 02:51:09;;;;;;;7.22;4.65;;;;;;;8.78;53.34;97364.94;5084666;28;20047;-72
2023/03/14 02:53:38;;;;;;;7.07;4.75;;;;;;;8.36;53.52;97311.94;5085457;28;20040;-72
2023/03/14 02:56:06;;;;;;;5.15;4.00;;;;;;;8.73;53.42;97370.59;5085935;28;20110;-73
2023/03/14 02:58:32;;;;;;;8.07;4.53;;;;;;;7.51;53.52;97194.63;5085611;28;20041;-72
2023/03/14 03:00:59;;;;;;;10.05;5.00;;;;;;;5.07;53.32;96797.38;5089596;28;20044;-72
2023/03/14 03:03:27;;;;;;;7.47;4.65;;;;;;;8.12;53.36;97311.19;5089799;28;20112;-73
2023/03/14 03:05:56;;;;;;;7.25;4.85;;;;;;;8.40;53.36;97355.59;5089321;28;20043;-73
2023/03/14 03:08:26;;;;;;;7.40;4.40;;;;;;;8.78;53.39;97425.69;5088499;28;20033;-73
2023/03/14 03:10:53;;;;;;;7.13;5.07;;;;;;;8.76;53.35;97436.38;5088524;28;20040;-73
2023/03/14 03:13:20;;;;;;;6.60;4.20;;;;;;;8.74;53.31;97435.66;5089295;28;20037;-73
2023/03/14 03:15:47;;;;;;;7.05;4.50;;;;;;;7.44;53.35;97235.59;5089238;28;20040;-73
2023/03/14 03:18:14;;;;;;;7.75;4.15;;;;;;;8.53;53.31;97414.41;5089538;28;20048;-73
2023/03/14 03:20:42;;;;;;;7.30;4.22;;;;;;;8.74;53.39;97458.59;5088500;28;20047;-73
2023/03/14 03:23:09;;;;;;;6.15;4.30;;;;;;;8.35;53.42;97392.06;5089340;28;20047;-73
2023/03/14 03:25:36;;;;;;;6.82;4.30;;;;;;;8.72;53.36;97464.00;5088847;28;20071;-73
2023/03/14 03:28:07;;;;;;;8.15;4.28;;;;;;;8.75;53.45;97463.75;5088738;28;20060;-73
2023/03/14 03:30:35;;;;;;;5.07;3.80;;;;;;;8.74;53.45;97466.50;5088866;28;20304;-73
2023/03/14 03:33:01;;;;;;;8.93;3.70;;;;;;;8.76;53.44;97480.44;5088948;28;20060;-73
2023/03/14 03:35:28;;;;;;;5.57;4.00;;;;;;;8.73;53.32;97475.41;5088256;28;20052;-74
2023/03/14 03:37:56;;;;;;;5.32;3.95;;;;;;;8.62;53.59;97450.66;5088703;28;20033;-73
2023/03/14 03:40:23;;;;;;;5.20;4.45;;;;;;;8.72;53.37;97473.72;5088757;28;20042;-73
2023/03/14 03:42:50;;;;;;;7.20;4.50;;;;;;;8.72;53.75;97468.44;5088972;28;20036;-74
2023/03/14 03:45:16;;;;;;;5.82;4.10;;;;;;;8.42;53.26;97401.19;5088574;28;20045;-72
2023/03/14 03:47:43;;;;;;;5.80;3.83;;;;;;;8.71;53.33;97459.66;5088598;28;20036;-73
2023/03/14 03:50:11;;;;;;;6.72;4.38;;;;;;;8.70;53.14;97455.34;5089160;28;20048;-74
2023/03/14 03:52:38;;;;;;;5.20;4.43;;;;;;;5.39;53.06;97087.41;5089035;28;20054;-73
2023/03/14 03:55:08;;;;;;;5.63;4.68;;;;;;;8.71;53.15;97453.53;5088787;28;20036;-73
2023/03/14 03:57:35;;;;;;;8.20;5.65;;;;;;;8.69;52.93;97456.31;5088835;28;20063;-73
2023/03/14 04:00:02;;;;;;;6.07;4.38;;;;;;;8.31;52.75;97390.63;5088523;28;20041;-73
2023/03/14 04:02:29;;;;;;;7.63;5.18;;;;;;;8.53;52.83;97435.53;5088581;28;20044;-73
2023/03/14 04:04:56;;;;;;;8.05;5.40;;;;;;;2.18;52.54;96389.31;5087505;28;20295;-74
2023/03/14 04:07:23;;;;;;;8.85;5.53;;;;;;;6.90;52.75;97163.22;5088153;28;20102;-73
2023/03/14 04:09:50;;;;;;;7.95;5.28;;;;;;;8.61;52.80;97456.91;5088478;28;20095;-73
2023/03/14 04:12:18;;;;;;;10.23;5.65;;;;;;;8.41;52.74;97417.16;5086686;28;20044;-73
2023/03/14 04:14:46;;;;;;;5.82;4.53;;;;;;;8.56;52.85;97445.84;5088382;28;20044;-73
2023/03/14 04:17:13;;;;;;;7.07;5.70;;;;;;;8.56;52.78;97447.66;5088530;28;20041;-73
2023/03/14 04:19:40;;;;;;;8.95;6.22;;;;;;;8.54;52.98;97450.41;5088428;28;20232;-73
2023/03/14 04:22:07;;;;;;;7.70;5.40;;;;;;;8.53;52.81;97461.94;5088278;28;20040;-73
2023/03/14 04:24:34;;;;;;;8.07;5.38;;;;;;;8.49;52.84;97441.16;5087591;28;20040;-74
2023/03/14 04:27:00;;;;;;;7.35;5.20;;;;;;;8.51;52.81;97455.91;5086955;28;20217;-73
2023/03/14 04:29:29;;;;;;;5.93;4.90;;;;;;;8.11;52.86;97393.94;5088043;28;20040;-74
2023/03/14 04:31:55;;;;;;;5.65;4.72;;;;;;;8.51;52.90;97455.91;5087807;28;20072;-74
2023/03/14 04:34:22;;;;;;;8.35;5.05;;;;;;;8.12;52.70;97393.00;5087263;28;20260;-73
2023/03/14 04:36:49;;;;;;;7.38;4.97;;;;;;;8.55;52.76;97457.38;5087871;28;20041;-73
2023/03/14 04:39:16;;;;;;;6.07;4.78;;;;;;;8.59;52.76;97465.91;5086973;28;20043;-73
2023/03/14 04:41:43;;;;;;;6.43;4.65;;;;;;;8.46;52.71;97446.69;5087266;28;20044;-74
2023/03/14 04:44:09;;;;;;;6.63;4.88;;;;;;;8.65;52.95;97481.28;5087792;28;20045;-73
2023/03/14 04:46:37;;;;;;;6.75;4.47;;;;;;;8.43;52.58;97434.56;5087614;28;20040;-73
2023/03/14 04:49:04;;;;;;;7.85;4.72;;;;;;;8.72;52.51;97465.78;5087528;28;20074;-74
2023/03/14 04:51:31;;;;;;;6.30;4.60;;;;;;;8.73;52.49;97454.25;5086784;28;20044;-73
2023/03/14 04:53:58;;;;;;;6.43;5.28;;;;;;;8.76;52.51;97454.88;5087297;28;20059;-73
2023/03/14 04:56:25;;;;;;;9.40;4.95;;;;;;;8.78;52.42;97458.22;5087477;28;20103;-73
2023/03/14 04:58:52;;;;;;;6.85;4.80;;;;;;;8.80;52.35;97466.03;5087175;28;20044;-73
2023/03/14 05:01:18;;;;;;;6.05;4.85;;;;;;;8.55;52.45;97430.97;5087541;28;20200;-73
2023/03/14 05:03:46;;;;;;;7.22;4.50;;;;;;;8.57;52.44;97442.25;5085972;28;20308;-73
2023/03/14 05:06:13;;;;;;;6.18;4.57;;;;;;;8.53;52.49;97427.59;5087002;28;20040;-73
2023/03/14 05:08:40;;;;;;;5.70;4.60;;;;;;;8.62;52.35;97434.81;5087234;28;20044;-72
2023/03/14 05:11:07;;;;;;;6.25;4.55;;;;;;;8.23;52.55;97363.97;5086921;28;20083;-72
2023/03/14 05:13:34;;;;;;;6.55;3.85;;;;;;;8.53;52.32;97395.91;5086815;28;20037;-73
2023/03/14 05:16:09;;;;;;;5.93;4.30;;;;;;;8.91;53.31;97489.81;5086037;28;20045;-72
2023/03/14 05:18:36;;;;;;;7.95;5.05;;;;;;;8.94;52.45;97473.72;5086642;28;20111;-72
2023/03/14 05:21:05;;;;;;;4.95;4.38;;;;;;;8.94;52.60;97479.00;5087217;28;20340;-73
2023/03/14 05:23:31;;;;;;;5.20;4.07;;;;;;;8.84;52.59;97470.13;5086138;28;20079;-73
2023/03/14 05:25:58;;;;;;;5.90;4.65;;;;;;;8.98;52.53;97496.31;5085627;28;20052;-73
2023/03/14 05:28:25;;;;;;;5.47;3.92;;;;;;;9.00;52.41;97508.44;5087019;28;20037;-73
2023/03/14 05:30:52;;;;;;;6.07;4.00;;;;;;;9.03;52.55;97522.38;5086751;28;20284;-73
2023/03/14 05:33:19;;;;;;;6.93;4.80;;;;;;;9.02;52.67;97521.53;5085776;28;20232;-74
2023/03/14 05:35:46;;;;;;;7.35;5.05;;;;;;;9.03;52.53;97520.56;5086382;28;20186;-73
2023/03/14 05:38:14;;;;;;;6.78;4.70;;;;;;;9.05;52.66;97518.66;5086773;28;20045;-73
2023/03/14 05:40:41;;;;;;;4.55;4.03;;;;;;;8.53;52.60;97456.66;5086526;28;20041;-73
2023/03/14 05:43:08;;;;;;;5.78;4.90;;;;;;;9.09;52.29;97527.19;5085330;28;20082;-73
2023/03/14 05:45:35;;;;;;;5.63;4.65;;;;;;;9.10;52.62;97526.22;5086227;28;20090;-73
2023/03/14 05:48:02;;;;;;;5.45;4.10;;;;;;;9.08;52.58;97530.78;5086385;28;20312;-73
2023/03/14 05:50:29;;;;;;;10.27;5.53;;;;;;;9.14;52.60;97538.22;5086234;28;20211;-73
2023/03/14 05:52:55;;;;;;;5.88;4.25;;;;;;;9.15;52.57;97529.34;5086290;28;20047;-73
2023/03/14 05:55:24;;;;;;;6.32;5.30;;;;;;;9.18;52.59;97550.25;5086166;28;20063;-73
2023/03/14 05:57:50;;;;;;;5.20;4.47;;;;;;;8.89;52.69;97511.06;5086166;28;20049;-72
2023/03/14 06:00:18;;;;;;;6.13;5.07;;;;;;;9.16;52.75;97554.81;5086377;28;20227;-73
2023/03/14 06:02:45;;;;;;;5.50;4.68;;;;;;;7.73;52.90;97331.75;5085874;28;20116;-73
2023/03/14 06:05:12;;;;;;;5.18;4.60;;;;;;;9.13;52.78;97570.91;5086325;28;20046;-73
2023/03/14 06:07:39;;;;;;;5.68;4.80;;;;;;;9.11;52.98;97575.47;5085871;28;20297;-73
2023/03/14 06:10:07;;;;;;;6.63;4.35;;;;;;;9.11;52.85;97563.09;5085388;28;20040;-73
2023/03/14 06:12:35;;;;;;;7.47;5.57;;;;;;;9.12;52.96;97554.22;5084855;28;20037;-73
2023/03/14 06:15:02;;;;;;;7.32;5.20;;;;;;;9.11;52.82;97551.69;5085637;28;20062;-73
2023/03/14 06:17:29;;;;;;;6.53;5.10;;;;;;;9.10;52.86;97550.84;5085586;28;20044;-73
2023/03/14 06:19:55;;;;;;;6.38;4.90;;;;;;;9.10;52.88;97561.41;5085867;28;20036;-73
2023/03/14 06:22:22;;;;;;;7.22;5.10;;;;;;;9.11;52.76;97563.09;5085307;28;20047;-73
2023/03/14 06:24:49;;;;;;;8.73;5.45;;;;;;;9.08;52.84;97554.56;5084772;28;20308;-73
2023/03/14 06:27:16;;;;;;;7.30;4.97;;;;;;;9.07;52.64;97556.38;5085389;28;20059;-73
2023/03/14 06:29:44;;;;;;;7.85;4.95;;;;;;;8.27;52.72;97419.06;5086029;28;20032;-73
2023/03/14 06:32:11;;;;;;;8.75;5.80;;;;;;;8.34;52.71;97436.09;5086014;28;20048;-73
2023/03/14 06:34:38;;;;;;;7.10;5.00;;;;;;;9.07;52.51;97552.88;5084089;28;20308;-73
2023/03/14 06:37:05;;;;;;;6.45;5.20;;;;;;;9.07;52.61;97569.56;5085607;28;20040;-73
2023/03/14 06:39:32;;;;;;;6.90;5.00;;;;;;;8.74;52.50;97503.50;5084384;28;20199;-74
2023/03/14 06:41:59;;;;;;;8.70;4.85;;;;;;;8.96;52.35;97535.22;5085840;28;20047;-73
2023/03/14 06:44:26;;;;;;;7.85;5.72;;;;;;;9.15;52.33;97556.59;5085707;28;20110;-73
2023/03/14 06:46:54;;;;;;;7.13;5.15;;;;;;;9.17;52.51;97543.28;5085602;28;20231;-73
2023/03/14 06:49:21;;;;;;;7.00;5.65;;;;;;;9.22;52.34;97531.41;5085269;28;20036;-73
2023/03/14 06:51:47;;;;;;;10.63;6.32;;;;;;;9.51;52.23;97545.00;5085651;28;20041;-73
2023/03/14 06:54:14;;;;;;;10.18;6.30;;;;;;;9.73;51.62;97553.88;5085283;28;20054;-73
2023/03/14 06:56:41;;;;;;;9.85;5.55;;;;;;;9.79;51.50;97551.59;5085766;28;20044;-73
2023/03/14 06:59:08;;;;;;;7.07;5.75;;;;;;;9.81;51.14;97554.94;5085412;28;20046;-74
2023/03/14 07:01:35;;;;;;;10.02;6.22;;;;;;;9.57;51.33;97517.22;5085435;28;20052;-74
2023/03/14 07:04:04;;;;;;;7.72;5.10;;;;;;;9.38;51.40;97493.19;5085358;28;20288;-74
2023/03/14 07:06:31;;;;;;;10.15;7.20;;;;;;;8.28;51.43;97306.41;5085597;28;20089;-74
2023/03/14 07:08:57;;;;;;;9.38;5.65;;;;;;;9.19;51.41;97446.19;5085996;28;20216;-73
2023/03/14 07:11:25;;;;;;;8.52;5.80;;;;;;;9.99;51.19;97557.06;5085381;28;20063;-74
2023/03/14 07:13:52;;;;;;;8.60;5.97;;;;;;;10.18;51.02;97563.38;5084276;28;20074;-73
2023/03/14 07:16:19;;;;;;;7.97;5.30;;;;;;;9.72;50.62;97505.41;5083967;28;20040;-73
2023/03/14 07:18:46;;;;;;;8.30;5.18;;;;;;;9.29;50.73;97426.88;5084250;28;20036;-73
2023/03/14 07:21:14;;;;;;;8.13;5.57;;;;;;;10.15;50.68;97573.38;5085413;28;20032;-73
2023/03/14 07:23:41;;;;;;;8.05;6.00;;;;;;;10.05;51.06;97570.66;5085301;28;20098;-73
2023/03/14 07:26:08;;;;;;;10.50;6.97;;;;;;;9.99;51.44;97572.94;5085150;28;20044;-73
2023/03/14 07:28:35;;;;;;;9.02;7.85;;;;;;;9.97;51.30;97572.22;5084471;28;20032;-73
2023/03/14 07:31:02;;;;;;;8.88;6.47;;;;;;;9.95;51.52;97572.34;5084116;28;20053;-73
2023/03/14 07:33:28;;;;;;;10.48;6.10;;;;;;;9.67;51.51;97533.22;5084445;28;20052;-72
2023/03/14 07:35:55;;;;;;;8.65;5.85;;;;;;;9.92;51.64;97573.44;5085106;28;20036;-72
2023/03/14 07:38:24;;;;;;;8.30;6.45;;;;;;;9.91;51.68;97569.13;5084912;28;20064;-73
2023/03/14 07:40:50;;;;;;;9.15;5.72;;;;;;;9.89;51.90;97576.34;5085389;28;20037;-73
2023/03/14 07:43:17;;;;;;;9.93;5.93;;;;;;;9.45;51.91;97497.91;5085455;28;20036;-73
2023/03/14 07:45:47;;;;;;;8.43;5.50;;;;;;;9.25;51.96;97462.44;5084126;28;20055;-73
2023/03/14 07:48:13;;;;;;;8.05;5.13;;;;;;;9.92;52.02;97562.00;5088717;28;20074;-73
2023/03/14 07:50:40;;;;;;;8.77;5.57;;;;;;;9.96;52.30;97555.50;5088373;28;20097;-73
2023/03/14 07:53:07;;;;;;;6.00;4.68;;;;;;;10.08;52.62;97557.16;5087945;28;20059;-73
2023/03/14 07:55:35;;;;;;;6.53;3.35;;;;;;;9.20;52.98;97382.69;5098379;28;20040;-72
2023/03/14 07:58:02;;;;;;;5.53;2.90;;;;;;;10.36;53.27;97549.59;5098134;28;20299;-73
2023/03/14 08:00:29;;;;;;;5.07;2.65;;;;;;;10.46;53.01;97559.31;5090399;28;20044;-72
2023/03/14 08:02:56;;;;;;;3.33;2.55;;;;;;;10.53;52.96;97555.16;5089059;28;20049;-73
2023/03/14 08:05:23;;;;;;;3.85;2.20;;;;;;;9.57;53.03;97398.22;5088645;28;20063;-73
2023/03/14 08:07:49;;;;;;;3.50;2.28;;;;;;;10.21;53.04;97461.69;5088566;28;20151;-73
2023/03/14 08:10:21;;;;;;;3.53;2.10;;;;;;;10.76;53.27;97534.69;5088303;28;20177;-73
2023/03/14 08:12:50;;;;;;;2.50;1.90;;;;;;;10.82;53.32;97538.66;5088348;28;20196;-73
2023/03/14 08:15:17;;;;;;;2.90;2.00;;;;;;;10.87;53.11;97533.81;5087126;28;20216;-73
2023/03/14 08:17:43;;;;;;;6.47;2.75;;;;;;;10.87;53.17;97528.53;5091374;28;20058;-73
2023/03/14 08:20:12;;;;;;;7.18;2.10;;;;;;;10.94;53.43;97542.94;5090609;28;20042;-73
2023/03/14 08:22:39;;;;;;;2.47;1.50;;;;;;;10.18;53.27;97477.84;5091967;28;20067;-73
2023/03/14 08:25:07;;;;;;;2.33;1.40;;;;;;;10.90;53.35;97507.91;5091591;28;20040;-73
2023/03/14 08:27:34;;;;;;;3.25;1.60;;;;;;;11.09;53.61;97524.88;5091951;28;20047;-73
2023/03/14 08:30:02;;;;;;;5.07;1.60;;;;;;;11.12;53.81;97546.66;5091328;28;20051;-73
2023/03/14 08:32:29;;;;;;;2.65;1.83;;;;;;;11.17;53.57;97547.09;5092036;28;20083;-73
2023/03/14 08:34:56;;;;;;;2.40;1.55;;;;;;;10.37;53.36;97414.41;5091147;28;20049;-73
2023/03/14 08:37:24;;;;;;;2.15;1.40;;;;;;;10.93;53.68;97484.75;5088639;28;20041;-73
2023/03/14 08:39:52;;;;;;;2.30;1.50;;;;;;;10.41;53.44;97417.66;5088205;28;20036;-73
2023/03/14 08:42:19;;;;;;;2.28;1.40;;;;;;;10.81;53.78;97460.16;5087429;28;20040;-73
2023/03/14 08:44:46;;;;;;;1.90;1.30;;;;;;;11.35;53.31;97539.38;5088751;28;20043;-73
2023/03/14 08:47:14;;;;;;;2.30;1.40;;;;;;;11.36;53.59;97538.38;5086791;28;20040;-73
2023/03/14 08:49:41;;;;;;;2.60;1.50;;;;;;;11.38;53.57;97528.50;5087944;28;20050;-73
2023/03/14 08:52:08;;;;;;;2.35;1.45;;;;;;;11.41;53.74;97527.38;5087846;28;20055;-73
2023/03/14 08:54:34;;;;;;;3.40;1.50;;;;;;;11.12;53.26;97472.41;5087222;28;20045;-73
2023/03/14 08:57:01;;;;;;;2.20;1.50;;;;;;;11.46;53.45;97528.66;5086724;28;20188;-73
2023/03/14 08:59:28;;;;;;;2.75;1.75;;;;;;;11.23;53.17;97477.63;5087278;28;20040;-73
2023/03/14 09:01:55;;;;;;;2.42;1.70;;;;;;;11.50;53.41;97529.22;5086898;28;20032;-73
2023/03/14 09:04:23;;;;;;;3.25;1.80;;;;;;;11.50;53.29;97521.28;5087396;28;20063;-73
2023/03/14 09:06:50;;;;;;;3.13;1.63;;;;;;;11.52;53.09;97519.31;5086741;28;20048;-73
2023/03/14 09:09:17;;;;;;;2.40;1.40;;;;;;;11.34;53.23;97489.09;5087219;28;20098;-72
2023/03/14 09:11:44;;;;;;;3.13;1.85;;;;;;;11.05;53.34;97441.28;5086918;28;20204;-73
2023/03/14 09:14:11;;;;;;;3.30;1.50;;;;;;;11.56;53.00;97526.03;5086316;28;20040;-73
2023/03/14 09:16:38;;;;;;;2.55;1.63;;;;;;;11.11;53.07;97444.22;5086866;28;20037;-73
2023/03/14 09:19:05;;;;;;;2.40;1.60;;;;;;;11.61;52.86;97518.50;5086082;28;20188;-73
2023/03/14 09:21:33;;;;;;;2.08;1.45;;;;;;;11.63;53.05;97529.81;5086986;28;20300;-73
2023/03/14 09:24:00;;;;;;;4.55;1.90;;;;;;;11.66;52.81;97534.03;5085742;28;20044;-73
2023/03/14 09:26:27;;;;;;;3.15;1.83;;;;;;;11.67;52.81;97533.88;5086634;28;20056;-73
2023/03/14 09:28:53;;;;;;;5.18;1.70;;;;;;;11.67;52.87;97523.28;5085976;28;20045;-73
2023/03/14 09:31:20;;;;;;;3.17;1.80;;;;;;;11.69;53.06;97528.44;5086715;28;20045;-73
2023/03/14 09:33:47;;;;;;;3.95;1.90;;;;;;;11.66;52.67;97518.94;5086701;28;20036;-73
2023/03/14 09:36:14;;;;;;;3.15;2.08;;;;;;;11.69;53.03;97534.59;5086806;28;20040;-73
2023/03/14 09:38:43;;;;;;;3.70;2.10;;;;;;;11.11;52.85;97440.75;5086429;28;20192;-72
2023/03/14 09:41:17;;;;;;;4.72;2.78;;;;;;;11.72;53.16;97528.19;5085393;28;20200;-73
2023/03/14 09:43:47;;;;;;;4.20;2.55;;;;;;;8.71;52.63;97041.56;5086251;28;20050;-73
2023/03/14 09:46:15;;;;;;;7.13;2.50;;;;;;;11.74;52.97;97531.53;5085341;28;20324;-73
2023/03/14 09:48:42;;;;;;;4.43;2.78;;;;;;;11.75;52.94;97535.88;5086378;28;20036;-73
2023/03/14 09:51:15;;;;;;;3.65;2.45;;;;;;;11.74;53.10;97542.16;5085998;28;20112;-73
2023/03/14 09:53:45;;;;;;;6.88;3.80;;;;;;;11.73;52.88;97525.38;5085991;28;20093;-72
2023/03/14 09:56:16;;;;;;;6.43;3.72;;;;;;;11.36;53.01;97474.75;5085171;28;20204;-72
2023/03/14 09:58:49;;;;;;;5.45;3.45;;;;;;;10.66;52.98;97363.41;5085701;28;20119;-72
2023/03/14 10:01:21;;;;;;;4.05;3.10;;;;;;;11.62;52.86;97524.66;5086049;28;20036;-73
2023/03/14 10:03:48;;;;;;;4.95;3.30;;;;;;;11.74;52.91;97537.69;5084626;28;20135;-72
2023/03/14 10:06:16;;;;;;;6.57;3.55;;;;;;;10.98;52.75;97403.03;5085923;28;20063;-72
2023/03/14 10:08:46;;;;;;;3.67;2.60;;;;;;;11.57;52.64;97509.16;5084372;28;20032;-72
2023/03/14 10:11:16;;;;;;;4.32;3.10;;;;;;;11.23;52.70;97476.78;5086320;28;20040;-72
2023/03/14 10:13:52;;;;;;;4.57;2.78;;;;;;;11.48;52.80;97491.38;5086082;28;20105;-73
2023/03/14 10:16:30;;;;;;;4.50;2.28;;;;;;;11.39;52.75;97460.38;5085425;28;20235;-72
2023/03/14 10:19:03;;;;;;;3.20;2.15;;;;;;;11.89;52.69;97533.66;5084768;28;20360;-73
2023/03/14 10:21:33;;;;;;;3.20;2.30;;;;;;;11.94;52.53;97535.91;5085845;28;20058;-72
2023/03/14 10:24:25;;;;;;;4.20;1.75;;;;;;;11.96;52.73;97543.72;5085818;28;20044;-72
2023/03/14 10:26:55;;;;;;;3.45;1.70;;;;;;;11.08;52.21;97393.28;5082986;28;20120;-73
2023/03/14 10:29:23;;;;;;;3.55;1.95;;;;;;;12.04;52.09;97546.56;5085478;28;20048;-73
2023/03/14 10:31:53;;;;;;;4.38;2.03;;;;;;;12.07;52.32;97548.94;5085462;28;20051;-73
2023/03/14 10:34:24;;;;;;;2.70;1.73;;;;;;;11.20;52.00;97401.00;5084626;28;20123;-73
2023/03/14 10:36:54;;;;;;;2.55;1.83;;;;;;;12.06;52.03;97556.09;5085357;28;20044;-72
2023/03/14 10:39:43;;;;;;;2.42;1.55;;;;;;;12.10;52.35;97554.81;5085782;28;20041;-73
2023/03/14 10:42:18;;;;;;;3.83;2.10;;;;;;;11.92;52.84;97515.78;5086025;28;20060;-72
2023/03/14 10:44:45;;;;;;;3.05;1.67;;;;;;;12.10;52.64;97554.81;5085730;28;20036;-73
2023/03/14 10:47:19;;;;;;;3.53;1.63;;;;;;;11.96;53.83;97531.28;5085577;28;20131;-72
2023/03/14 10:49:46;;;;;;;2.47;1.80;;;;;;;12.04;53.39;97544.75;5085464;28;20048;-73
2023/03/14 10:52:16;;;;;;;2.63;1.50;;;;;;;11.52;53.86;97472.41;5085716;28;20058;-73
2023/03/14 10:54:48;;;;;;;1.95;1.30;;;;;;;11.97;53.71;97545.41;5085777;28;20296;-72
2023/03/14 10:57:15;;;;;;;2.15;1.30;;;;;;;11.63;53.37;97495.34;5085543;28;20045;-73
2023/03/14 10:59:43;;;;;;;2.13;1.35;;;;;;;11.91;53.47;97540.66;5083937;28;20056;-73
2023/03/14 11:02:27;;;;;;;2.00;1.33;;;;;;;11.87;53.44;97546.22;5085544;28;20108;-72
2023/03/14 11:05:04;;;;;;;2.08;1.30;;;;;;;11.17;53.03;97441.03;5085256;28;20040;-73
2023/03/14 11:07:37;;;;;;;2.38;1.50;;;;;;;11.49;52.68;97501.88;5085532;28;20108;-73
2023/03/14 11:10:15;;;;;;;2.47;1.23;;;;;;;11.03;52.26;97444.06;5084519;28;20041;-72
2023/03/14 11:12:52;;;;;;;2.83;1.27;;;;;;;11.67;52.55;97530.41;5085289;28;20044;-72
2023/03/14 11:15:25;;;;;;;1.73;1.20;;;;;;;11.63;52.15;97539.59;5084313;28;20109;-73
2023/03/14 11:18:07;;;;;;;1.90;1.40;;;;;;;11.61;52.26;97539.75;5084448;28;20037;-73
2023/03/14 11:20:44;;;;;;;1.90;1.30;;;;;;;11.58;52.41;97529.41;5086248;28;20044;-72
2023/03/14 11:23:15;;;;;;;2.78;1.30;;;;;;;11.57;52.25;97535.69;5089180;28;20040;-73
2023/03/14 11:25:50;;;;;;;5.35;1.60;;;;;;;11.02;51.90;97442.38;5088898;28;20087;-73
2023/03/14 11:28:22;;;;;;;1.70;1.25;;;;;;;10.46;52.00;97416.28;5088977;28;20090;-72
2023/03/14 11:30:53;;;;;;;2.05;1.30;;;;;;;-1.66;50.95;95536.00;5088137;28;20289;-72
2023/03/14 11:33:25;;;;;;;2.08;1.20;;;;;;;11.50;51.61;97547.81;5089059;28;20184;-73
2023/03/14 11:36:02;;;;;;;1.95;1.27;;;;;;;11.47;51.35;97542.75;5088897;28;20401;-72
2023/03/14 11:38:34;;;;;;;2.13;1.40;;;;;;;11.42;51.78;97545.81;5088326;28;20044;-72
2023/03/14 11:41:05;;;;;;;1.77;1.23;;;;;;;11.05;52.17;97486.34;5088857;28;20040;-72
2023/03/14 11:43:39;;;;;;;2.78;1.40;;;;;;;11.41;51.85;97546.78;5089003;28;20045;-73